sensor_id;sensor_type;location;lat;lon;timestamp;temperature;humidity
24085;DHT22;12268;52.110;5.548;2023-03-23T00:01:25;13.30;99.90
24085;DHT22;12268;52.110;5.548;2023-03-23T00:03:53;13.40;99.90
24085;DHT22;12268;52.110;5.548;2023-03-23T00:06:22;13.20;99.90
24085;DHT22;12268;52.110;5.548;2023-03-23T00:08:50;13.10;99.90
24085;DHT22;12268;52.110;5.548;2023-03-23T00:11:23;13.00;99.90
24085;DHT22;12268;52.110;5.548;2023-03-23T00:13:50;13.10;99.90
24085;DHT22;12268;52.110;5.548;2023-03-23T00:16:21;13.10;99.90
24085;DHT22;12268;52.110;5.548;2023-03-23T00:18:57;13.20;99.90
24085;DHT22;12268;52.110;5.548;2023-03-23T00:21:25;13.30;99.90
24085;DHT22;12268;52.110;5.548;2023-03-23T00:24:15;13.30;99.90
24085;DHT22;12268;52.110;5.548;2023-03-23T00:26:45;13.30;99.90
24085;DHT22;12268;52.110;5.548;2023-03-23T00:29:22;13.30;99.90
24085;DHT22;12268;52.110;5.548;2023-03-23T00:31:48;13.10;99.90
24085;DHT22;12268;52.110;5.548;2023-03-23T00:34:19;13.00;99.90
24085;DHT22;12268;52.110;5.548;2023-03-23T00:36:46;13.10;99.90
24085;DHT22;12268;52.110;5.548;2023-03-23T00:39:12;13.10;99.90
24085;DHT22;12268;52.110;5.548;2023-03-23T00:41:38;13.40;99.90
24085;DHT22;12268;52.110;5.548;2023-03-23T00:44:04;13.50;99.90
24085;DHT22;12268;52.110;5.548;2023-03-23T00:46:29;13.30;99.90
24085;DHT22;12268;52.110;5.548;2023-03-23T00:48:56;13.30;99.90
24085;DHT22;12268;52.110;5.548;2023-03-23T00:51:22;13.30;99.90
24085;DHT22;12268;52.110;5.548;2023-03-23T00:53:48;13.20;99.90
24085;DHT22;12268;52.110;5.548;2023-03-23T00:56:14;13.20;99.90
24085;DHT22;12268;52.110;5.548;2023-03-23T00:58:39;13.30;99.90
24085;DHT22;12268;52.110;5.548;2023-03-23T01:01:06;13.40;99.90
24085;DHT22;12268;52.110;5.548;2023-03-23T01:03:32;13.30;99.90
24085;DHT22;12268;52.110;5.548;2023-03-23T01:06:07;13.30;99.90
24085;DHT22;12268;52.110;5.548;2023-03-23T01:08:34;13.40;99.90
24085;DHT22;12268;52.110;5.548;2023-03-23T01:11:04;13.50;99.90
24085;DHT22;12268;52.110;5.548;2023-03-23T01:13:30;13.50;99.90
24085;DHT22;12268;52.110;5.548;2023-03-23T01:15:55;13.50;99.90
24085;DHT22;12268;52.110;5.548;2023-03-23T01:18:21;13.50;99.90
24085;DHT22;12268;52.110;5.548;2023-03-23T01:20:46;13.60;99.90
24085;DHT22;12268;52.110;5.548;2023-03-23T01:23:12;13.70;99.90
24085;DHT22;12268;52.110;5.548;2023-03-23T01:25:37;13.60;99.90
24085;DHT22;12268;52.110;5.548;2023-03-23T01:28:03;13.60;99.90
24085;DHT22;12268;52.110;5.548;2023-03-23T01:30:29;13.70;99.90
24085;DHT22;12268;52.110;5.548;2023-03-23T01:32:55;13.70;99.90
24085;DHT22;12268;52.110;5.548;2023-03-23T01:35:21;13.70;99.90
24085;DHT22;12268;52.110;5.548;2023-03-23T01:37:47;13.80;99.90
24085;DHT22;12268;52.110;5.548;2023-03-23T01:40:13;13.80;99.90
24085;DHT22;12268;52.110;5.548;2023-03-23T01:42:39;13.70;99.90
24085;DHT22;12268;52.110;5.548;2023-03-23T01:45:24;13.70;99.90
24085;DHT22;12268;52.110;5.548;2023-03-23T01:50:30;13.80;99.90
24085;DHT22;12268;52.110;5.548;2023-03-23T01:53:00;13.80;99.90
24085;DHT22;12268;52.110;5.548;2023-03-23T01:55:27;14.00;99.90
24085;DHT22;12268;52.110;5.548;2023-03-23T01:57:54;14.00;99.90
24085;DHT22;12268;52.110;5.548;2023-03-23T02:00:20;13.90;99.90
24085;DHT22;12268;52.110;5.548;2023-03-23T02:02:48;13.90;99.90
24085;DHT22;12268;52.110;5.548;2023-03-23T02:05:21;13.70;99.90
24085;DHT22;12268;52.110;5.548;2023-03-23T02:07:49;13.80;99.90
24085;DHT22;12268;52.110;5.548;2023-03-23T02:10:16;13.70;99.90
24085;DHT22;12268;52.110;5.548;2023-03-23T02:12:42;13.80;99.90
24085;DHT22;12268;52.110;5.548;2023-03-23T02:15:07;13.70;99.90
24085;DHT22;12268;52.110;5.548;2023-03-23T02:17:52;13.70;99.90
24085;DHT22;12268;52.110;5.548;2023-03-23T02:36:42;13.70;99.90
24085;DHT22;12268;52.110;5.548;2023-03-23T02:39:19;13.70;99.90
24085;DHT22;12268;52.110;5.548;2023-03-23T02:41:54;13.70;99.90
24085;DHT22;12268;52.110;5.548;2023-03-23T02:44:23;13.70;99.90
24085;DHT22;12268;52.110;5.548;2023-03-23T02:46:51;13.80;99.90
24085;DHT22;12268;52.110;5.548;2023-03-23T02:49:19;13.90;99.90
24085;DHT22;12268;52.110;5.548;2023-03-23T02:51:47;13.90;99.90
24085;DHT22;12268;52.110;5.548;2023-03-23T02:54:15;13.70;99.90
24085;DHT22;12268;52.110;5.548;2023-03-23T02:56:42;13.70;99.90
24085;DHT22;12268;52.110;5.548;2023-03-23T02:59:08;13.60;99.90
24085;DHT22;12268;52.110;5.548;2023-03-23T03:04:10;13.80;99.90
24085;DHT22;12268;52.110;5.548;2023-03-23T03:09:42;13.60;99.90
24085;DHT22;12268;52.110;5.548;2023-03-23T03:14:58;13.80;99.90
24085;DHT22;12268;52.110;5.548;2023-03-23T03:17:29;14.00;99.90
24085;DHT22;12268;52.110;5.548;2023-03-23T03:20:01;14.10;99.90
24085;DHT22;12268;52.110;5.548;2023-03-23T03:22:35;14.00;99.90
24085;DHT22;12268;52.110;5.548;2023-03-23T03:25:03;14.00;99.90
24085;DHT22;12268;52.110;5.548;2023-03-23T03:27:30;13.90;99.90
24085;DHT22;12268;52.110;5.548;2023-03-23T03:29:59;14.10;99.90
24085;DHT22;12268;52.110;5.548;2023-03-23T03:32:40;13.90;99.90
24085;DHT22;12268;52.110;5.548;2023-03-23T03:35:06;14.00;99.90
24085;DHT22;12268;52.110;5.548;2023-03-23T03:37:36;14.00;99.90
24085;DHT22;12268;52.110;5.548;2023-03-23T03:40:04;13.90;99.90
24085;DHT22;12268;52.110;5.548;2023-03-23T03:42:33;14.00;99.90
24085;DHT22;12268;52.110;5.548;2023-03-23T03:44:59;13.90;99.90
24085;DHT22;12268;52.110;5.548;2023-03-23T03:47:25;13.90;99.90
24085;DHT22;12268;52.110;5.548;2023-03-23T03:49:51;13.90;99.90
24085;DHT22;12268;52.110;5.548;2023-03-23T03:52:17;13.80;99.90
24085;DHT22;12268;52.110;5.548;2023-03-23T03:54:42;13.90;99.90
24085;DHT22;12268;52.110;5.548;2023-03-23T03:57:08;14.00;99.90
24085;DHT22;12268;52.110;5.548;2023-03-23T03:59:33;14.00;99.90
24085;DHT22;12268;52.110;5.548;2023-03-23T04:01:59;14.10;99.90
24085;DHT22;12268;52.110;5.548;2023-03-23T04:04:25;14.10;99.90
24085;DHT22;12268;52.110;5.548;2023-03-23T04:06:50;14.20;99.90
24085;DHT22;12268;52.110;5.548;2023-03-23T04:09:16;14.10;99.90
24085;DHT22;12268;52.110;5.548;2023-03-23T04:11:41;14.10;99.90
24085;DHT22;12268;52.110;5.548;2023-03-23T04:14:07;14.00;99.90
24085;DHT22;12268;52.110;5.548;2023-03-23T04:16:32;14.00;99.90
24085;DHT22;12268;52.110;5.548;2023-03-23T04:19:00;14.00;99.90
24085;DHT22;12268;52.110;5.548;2023-03-23T04:21:26;13.90;99.90
24085;DHT22;12268;52.110;5.548;2023-03-23T04:23:55;14.00;99.90
24085;DHT22;12268;52.110;5.548;2023-03-23T04:26:27;14.10;99.90
24085;DHT22;12268;52.110;5.548;2023-03-23T04:28:56;14.00;99.90
24085;DHT22;12268;52.110;5.548;2023-03-23T04:31:25;14.00;99.90
24085;DHT22;12268;52.110;5.548;2023-03-23T04:33:51;14.00;99.90
24085;DHT22;12268;52.110;5.548;2023-03-23T04:36:17;13.90;99.90
24085;DHT22;12268;52.110;5.548;2023-03-23T04:38:43;13.90;99.90
24085;DHT22;12268;52.110;5.548;2023-03-23T04:41:09;13.70;99.90
24085;DHT22;12268;52.110;5.548;2023-03-23T04:43:34;13.80;99.90
24085;DHT22;12268;52.110;5.548;2023-03-23T04:46:07;13.90;99.90
24085;DHT22;12268;52.110;5.548;2023-03-23T04:48:34;13.80;99.90
24085;DHT22;12268;52.110;5.548;2023-03-23T04:51:02;13.90;99.90
24085;DHT22;12268;52.110;5.548;2023-03-23T04:53:29;14.00;99.90
24085;DHT22;12268;52.110;5.548;2023-03-23T04:55:55;14.00;99.90
24085;DHT22;12268;52.110;5.548;2023-03-23T04:58:21;13.90;99.90
24085;DHT22;12268;52.110;5.548;2023-03-23T05:00:48;13.90;99.90
24085;DHT22;12268;52.110;5.548;2023-03-23T05:03:16;13.90;99.90
24085;DHT22;12268;52.110;5.548;2023-03-23T05:05:42;13.90;99.90
24085;DHT22;12268;52.110;5.548;2023-03-23T05:08:12;13.80;99.90
24085;DHT22;12268;52.110;5.548;2023-03-23T05:10:38;13.70;99.90
24085;DHT22;12268;52.110;5.548;2023-03-23T05:13:03;13.80;99.90
24085;DHT22;12268;52.110;5.548;2023-03-23T05:15:29;13.80;99.90
24085;DHT22;12268;52.110;5.548;2023-03-23T05:17:55;13.80;99.90
24085;DHT22;12268;52.110;5.548;2023-03-23T05:20:21;13.70;99.90
24085;DHT22;12268;52.110;5.548;2023-03-23T05:22:47;13.70;99.90
24085;DHT22;12268;52.110;5.548;2023-03-23T05:25:15;13.70;99.90
24085;DHT22;12268;52.110;5.548;2023-03-23T05:27:40;13.70;99.90
24085;DHT22;12268;52.110;5.548;2023-03-23T05:30:14;13.80;99.90
24085;DHT22;12268;52.110;5.548;2023-03-23T05:32:42;13.80;99.90
24085;DHT22;12268;52.110;5.548;2023-03-23T05:35:08;13.80;99.90
24085;DHT22;12268;52.110;5.548;2023-03-23T05:37:33;13.90;99.90
24085;DHT22;12268;52.110;5.548;2023-03-23T05:39:59;13.80;99.90
24085;DHT22;12268;52.110;5.548;2023-03-23T05:42:30;13.70;99.90
24085;DHT22;12268;52.110;5.548;2023-03-23T05:44:56;13.80;99.90
24085;DHT22;12268;52.110;5.548;2023-03-23T05:47:22;13.70;99.90
24085;DHT22;12268;52.110;5.548;2023-03-23T05:49:48;13.70;99.90
24085;DHT22;12268;52.110;5.548;2023-03-23T05:52:13;13.80;99.90
24085;DHT22;12268;52.110;5.548;2023-03-23T05:54:39;13.80;99.90
24085;DHT22;12268;52.110;5.548;2023-03-23T05:57:07;13.70;99.90
24085;DHT22;12268;52.110;5.548;2023-03-23T05:59:34;13.80;99.90
24085;DHT22;12268;52.110;5.548;2023-03-23T06:02:00;13.80;99.90
24085;DHT22;12268;52.110;5.548;2023-03-23T06:04:26;13.70;99.90
24085;DHT22;12268;52.110;5.548;2023-03-23T06:06:52;13.70;99.90
24085;DHT22;12268;52.110;5.548;2023-03-23T06:09:18;13.70;99.90
24085;DHT22;12268;52.110;5.548;2023-03-23T06:11:44;13.30;99.90
24085;DHT22;12268;52.110;5.548;2023-03-23T06:14:10;13.00;99.90
24085;DHT22;12268;52.110;5.548;2023-03-23T06:16:35;12.80;99.90
24085;DHT22;12268;52.110;5.548;2023-03-23T06:19:01;12.70;99.90
24085;DHT22;12268;52.110;5.548;2023-03-23T06:21:29;12.80;99.90
24085;DHT22;12268;52.110;5.548;2023-03-23T06:23:55;12.80;99.90
24085;DHT22;12268;52.110;5.548;2023-03-23T06:26:38;12.90;99.90
24085;DHT22;12268;52.110;5.548;2023-03-23T06:29:05;12.90;99.90
24085;DHT22;12268;52.110;5.548;2023-03-23T06:31:38;12.80;99.90
24085;DHT22;12268;52.110;5.548;2023-03-23T06:34:04;12.80;99.90
24085;DHT22;12268;52.110;5.548;2023-03-23T06:36:30;12.80;99.90
24085;DHT22;12268;52.110;5.548;2023-03-23T06:38:56;12.70;99.90
24085;DHT22;12268;52.110;5.548;2023-03-23T06:41:22;12.80;99.90
24085;DHT22;12268;52.110;5.548;2023-03-23T06:43:48;12.70;99.90
24085;DHT22;12268;52.110;5.548;2023-03-23T06:46:13;12.70;99.90
24085;DHT22;12268;52.110;5.548;2023-03-23T06:48:39;12.70;99.90
24085;DHT22;12268;52.110;5.548;2023-03-23T06:51:05;12.80;99.90
24085;DHT22;12268;52.110;5.548;2023-03-23T06:53:30;12.70;99.90
24085;DHT22;12268;52.110;5.548;2023-03-23T06:55:56;12.70;99.90
24085;DHT22;12268;52.110;5.548;2023-03-23T06:58:22;12.80;99.90
24085;DHT22;12268;52.110;5.548;2023-03-23T07:00:53;12.80;99.90
24085;DHT22;12268;52.110;5.548;2023-03-23T07:03:19;12.80;99.90
24085;DHT22;12268;52.110;5.548;2023-03-23T07:05:46;12.70;99.90
24085;DHT22;12268;52.110;5.548;2023-03-23T07:08:12;12.70;99.90
24085;DHT22;12268;52.110;5.548;2023-03-23T07:10:38;12.80;99.90
24085;DHT22;12268;52.110;5.548;2023-03-23T07:13:04;12.80;99.90
24085;DHT22;12268;52.110;5.548;2023-03-23T07:15:29;12.60;99.90
24085;DHT22;12268;52.110;5.548;2023-03-23T07:17:56;12.60;99.90
24085;DHT22;12268;52.110;5.548;2023-03-23T07:20:21;12.60;99.90
24085;DHT22;12268;52.110;5.548;2023-03-23T07:22:47;12.50;99.90
24085;DHT22;12268;52.110;5.548;2023-03-23T07:25:12;12.50;99.90
24085;DHT22;12268;52.110;5.548;2023-03-23T07:27:38;12.70;99.90
24085;DHT22;12268;52.110;5.548;2023-03-23T07:30:05;12.60;99.90
24085;DHT22;12268;52.110;5.548;2023-03-23T07:32:30;12.50;99.90
24085;DHT22;12268;52.110;5.548;2023-03-23T07:34:56;12.40;99.90
24085;DHT22;12268;52.110;5.548;2023-03-23T07:37:22;12.50;99.90
24085;DHT22;12268;52.110;5.548;2023-03-23T07:39:48;12.50;99.90
24085;DHT22;12268;52.110;5.548;2023-03-23T07:42:13;12.60;99.90
24085;DHT22;12268;52.110;5.548;2023-03-23T07:44:39;12.70;99.90
24085;DHT22;12268;52.110;5.548;2023-03-23T07:47:04;12.80;99.90
24085;DHT22;12268;52.110;5.548;2023-03-23T07:49:30;12.90;99.90
24085;DHT22;12268;52.110;5.548;2023-03-23T07:51:56;13.00;99.90
24085;DHT22;12268;52.110;5.548;2023-03-23T07:54:23;12.90;99.90
24085;DHT22;12268;52.110;5.548;2023-03-23T07:56:48;12.90;99.90
24085;DHT22;12268;52.110;5.548;2023-03-23T07:59:14;12.90;99.90
24085;DHT22;12268;52.110;5.548;2023-03-23T08:01:41;13.00;99.90
24085;DHT22;12268;52.110;5.548;2023-03-23T08:04:06;13.10;99.90
24085;DHT22;12268;52.110;5.548;2023-03-23T08:06:33;13.10;99.90
24085;DHT22;12268;52.110;5.548;2023-03-23T08:08:59;13.20;99.90
24085;DHT22;12268;52.110;5.548;2023-03-23T08:11:26;13.30;99.90
24085;DHT22;12268;52.110;5.548;2023-03-23T08:13:51;13.20;99.90
24085;DHT22;12268;52.110;5.548;2023-03-23T08:16:17;13.10;99.90
24085;DHT22;12268;52.110;5.548;2023-03-23T08:18:44;13.00;99.90
24085;DHT22;12268;52.110;5.548;2023-03-23T08:21:09;13.00;99.90
24085;DHT22;12268;52.110;5.548;2023-03-23T08:23:36;13.10;99.90
24085;DHT22;12268;52.110;5.548;2023-03-23T08:26:07;13.10;99.90
24085;DHT22;12268;52.110;5.548;2023-03-23T08:28:34;13.20;99.90
24085;DHT22;12268;52.110;5.548;2023-03-23T08:31:05;13.20;99.90
24085;DHT22;12268;52.110;5.548;2023-03-23T08:33:31;13.20;99.90
24085;DHT22;12268;52.110;5.548;2023-03-23T08:35:58;13.20;99.90
24085;DHT22;12268;52.110;5.548;2023-03-23T08:38:24;13.20;99.90
24085;DHT22;12268;52.110;5.548;2023-03-23T08:40:50;13.30;99.90
24085;DHT22;12268;52.110;5.548;2023-03-23T08:43:17;13.50;99.90
24085;DHT22;12268;52.110;5.548;2023-03-23T08:45:43;13.70;99.90
24085;DHT22;12268;52.110;5.548;2023-03-23T08:48:09;13.80;99.90
24085;DHT22;12268;52.110;5.548;2023-03-23T08:50:35;13.70;99.90
24085;DHT22;12268;52.110;5.548;2023-03-23T08:53:01;14.00;99.90
24085;DHT22;12268;52.110;5.548;2023-03-23T08:55:27;14.20;99.90
24085;DHT22;12268;52.110;5.548;2023-03-23T08:57:53;14.20;99.90
24085;DHT22;12268;52.110;5.548;2023-03-23T09:00:20;14.10;99.90
24085;DHT22;12268;52.110;5.548;2023-03-23T09:02:49;14.20;99.90
24085;DHT22;12268;52.110;5.548;2023-03-23T09:05:20;14.10;99.90
24085;DHT22;12268;52.110;5.548;2023-03-23T09:07:47;14.10;99.90
24085;DHT22;12268;52.110;5.548;2023-03-23T09:10:14;14.20;99.90
24085;DHT22;12268;52.110;5.548;2023-03-23T09:12:41;14.10;99.90
24085;DHT22;12268;52.110;5.548;2023-03-23T09:15:09;14.70;99.90
24085;DHT22;12268;52.110;5.548;2023-03-23T09:17:36;15.40;99.90
24085;DHT22;12268;52.110;5.548;2023-03-23T09:20:04;15.60;99.90
24085;DHT22;12268;52.110;5.548;2023-03-23T09:22:36;15.80;99.90
24085;DHT22;12268;52.110;5.548;2023-03-23T09:25:02;16.10;99.90
24085;DHT22;12268;52.110;5.548;2023-03-23T09:27:27;16.20;99.90
24085;DHT22;12268;52.110;5.548;2023-03-23T09:29:53;15.70;99.90
24085;DHT22;12268;52.110;5.548;2023-03-23T09:32:21;15.30;99.90
24085;DHT22;12268;52.110;5.548;2023-03-23T09:34:48;15.30;99.90
24085;DHT22;12268;52.110;5.548;2023-03-23T09:37:13;15.40;99.90
24085;DHT22;12268;52.110;5.548;2023-03-23T09:39:39;15.60;99.90
24085;DHT22;12268;52.110;5.548;2023-03-23T09:42:31;15.70;99.90
24085;DHT22;12268;52.110;5.548;2023-03-23T09:45:26;15.80;99.90
24085;DHT22;12268;52.110;5.548;2023-03-23T09:50:42;16.40;99.90
24085;DHT22;12268;52.110;5.548;2023-03-23T09:53:19;16.70;99.90
24085;DHT22;12268;52.110;5.548;2023-03-23T09:55:46;17.30;99.90
24085;DHT22;12268;52.110;5.548;2023-03-23T09:58:34;17.10;99.90
24085;DHT22;12268;52.110;5.548;2023-03-23T10:01:21;16.30;99.90
24085;DHT22;12268;52.110;5.548;2023-03-23T10:03:55;15.30;99.90
24085;DHT22;12268;52.110;5.548;2023-03-23T10:06:23;15.20;99.90
24085;DHT22;12268;52.110;5.548;2023-03-23T10:08:57;15.40;99.90
24085;DHT22;12268;52.110;5.548;2023-03-23T10:26:00;15.40;99.90
24085;DHT22;12268;52.110;5.548;2023-03-23T10:28:41;16.00;99.90
24085;DHT22;12268;52.110;5.548;2023-03-23T10:31:11;16.20;99.90
24085;DHT22;12268;52.110;5.548;2023-03-23T10:33:49;16.50;99.90
24085;DHT22;12268;52.110;5.548;2023-03-23T10:36:26;16.50;99.90
24085;DHT22;12268;52.110;5.548;2023-03-23T10:39:00;17.10;99.90
24085;DHT22;12268;52.110;5.548;2023-03-23T10:41:29;18.20;99.90
24085;DHT22;12268;52.110;5.548;2023-03-23T10:43:55;18.20;99.90
24085;DHT22;12268;52.110;5.548;2023-03-23T10:46:50;17.70;99.90
24085;DHT22;12268;52.110;5.548;2023-03-23T10:49:45;17.60;99.90
24085;DHT22;12268;52.110;5.548;2023-03-23T10:55:04;18.80;99.90
24085;DHT22;12268;52.110;5.548;2023-03-23T10:57:32;18.20;99.90
24085;DHT22;12268;52.110;5.548;2023-03-23T11:02:27;17.70;99.90
24085;DHT22;12268;52.110;5.548;2023-03-23T11:05:02;17.90;99.90
24085;DHT22;12268;52.110;5.548;2023-03-23T11:07:32;17.10;99.90
24085;DHT22;12268;52.110;5.548;2023-03-23T11:10:16;16.70;99.90
24085;DHT22;12268;52.110;5.548;2023-03-23T11:12:44;16.40;99.90
24085;DHT22;12268;52.110;5.548;2023-03-23T11:15:35;15.90;99.90
24085;DHT22;12268;52.110;5.548;2023-03-23T11:18:12;16.20;99.90
24085;DHT22;12268;52.110;5.548;2023-03-23T11:20:41;16.20;99.90
24085;DHT22;12268;52.110;5.548;2023-03-23T11:23:22;16.80;99.90
24085;DHT22;12268;52.110;5.548;2023-03-23T11:26:14;16.60;99.90
24085;DHT22;12268;52.110;5.548;2023-03-23T11:31:41;16.10;99.90
24085;DHT22;12268;52.110;5.548;2023-03-23T11:37:25;15.80;99.90
24085;DHT22;12268;52.110;5.548;2023-03-23T11:45:27;17.80;99.90
24085;DHT22;12268;52.110;5.548;2023-03-23T11:48:15;18.30;99.90
24085;DHT22;12268;52.110;5.548;2023-03-23T11:53:40;16.90;99.90
24085;DHT22;12268;52.110;5.548;2023-03-23T11:56:17;16.20;99.90
24085;DHT22;12268;52.110;5.548;2023-03-23T11:58:44;15.70;99.90
24085;DHT22;12268;52.110;5.548;2023-03-23T12:15:09;13.70;99.90
24085;DHT22;12268;52.110;5.548;2023-03-23T12:17:56;13.40;99.90
24085;DHT22;12268;52.110;5.548;2023-03-23T12:20:45;13.20;99.90
24085;DHT22;12268;52.110;5.548;2023-03-23T12:25:57;13.50;99.90
24085;DHT22;12268;52.110;5.548;2023-03-23T12:28:45;14.40;99.90
24085;DHT22;12268;52.110;5.548;2023-03-23T12:31:16;15.40;99.90
24085;DHT22;12268;52.110;5.548;2023-03-23T12:33:59;16.10;99.90
24085;DHT22;12268;52.110;5.548;2023-03-23T12:36:37;16.80;99.90
24085;DHT22;12268;52.110;5.548;2023-03-23T12:45:05;16.90;99.90
24085;DHT22;12268;52.110;5.548;2023-03-23T12:47:47;16.90;99.90
24085;DHT22;12268;52.110;5.548;2023-03-23T12:53:06;17.10;99.90
24085;DHT22;12268;52.110;5.548;2023-03-23T12:59:09;16.50;99.90
24085;DHT22;12268;52.110;5.548;2023-03-23T13:01:41;16.80;99.90
24085;DHT22;12268;52.110;5.548;2023-03-23T13:04:14;17.20;99.90
24085;DHT22;12268;52.110;5.548;2023-03-23T13:06:44;17.00;99.90
24085;DHT22;12268;52.110;5.548;2023-03-23T13:09:24;17.20;99.90
24085;DHT22;12268;52.110;5.548;2023-03-23T13:11:53;17.70;99.90
24085;DHT22;12268;52.110;5.548;2023-03-23T13:14:47;18.50;99.90
24085;DHT22;12268;52.110;5.548;2023-03-23T13:20:27;18.50;99.90
24085;DHT22;12268;52.110;5.548;2023-03-23T13:26:03;17.00;99.90
24085;DHT22;12268;52.110;5.548;2023-03-23T13:28:33;16.50;99.90
24085;DHT22;12268;52.110;5.548;2023-03-23T13:31:34;16.20;99.90
24085;DHT22;12268;52.110;5.548;2023-03-23T13:34:04;16.00;99.90
24085;DHT22;12268;52.110;5.548;2023-03-23T13:36:42;15.70;99.90
24085;DHT22;12268;52.110;5.548;2023-03-23T13:39:22;16.20;99.90
24085;DHT22;12268;52.110;5.548;2023-03-23T13:52:24;15.50;99.90
24085;DHT22;12268;52.110;5.548;2023-03-23T13:54:51;15.60;99.90
24085;DHT22;12268;52.110;5.548;2023-03-23T13:57:25;15.60;99.90
24085;DHT22;12268;52.110;5.548;2023-03-23T13:59:57;15.50;99.90
24085;DHT22;12268;52.110;5.548;2023-03-23T14:02:33;15.60;99.90
24085;DHT22;12268;52.110;5.548;2023-03-23T14:05:38;15.70;99.90
24085;DHT22;12268;52.110;5.548;2023-03-23T14:08:21;16.00;99.90
24085;DHT22;12268;52.110;5.548;2023-03-23T14:10:53;15.70;99.90
24085;DHT22;12268;52.110;5.548;2023-03-23T14:13:23;15.10;99.90
24085;DHT22;12268;52.110;5.548;2023-03-23T14:16:15;14.80;99.90
24085;DHT22;12268;52.110;5.548;2023-03-23T14:18:42;14.80;99.90
24085;DHT22;12268;52.110;5.548;2023-03-23T14:21:13;14.60;99.90
24085;DHT22;12268;52.110;5.548;2023-03-23T14:23:39;14.40;99.90
24085;DHT22;12268;52.110;5.548;2023-03-23T14:26:11;14.50;99.90
24085;DHT22;12268;52.110;5.548;2023-03-23T14:28:43;14.60;99.90
24085;DHT22;12268;52.110;5.548;2023-03-23T14:31:19;15.00;99.90
24085;DHT22;12268;52.110;5.548;2023-03-23T14:33:46;15.40;99.90
24085;DHT22;12268;52.110;5.548;2023-03-23T14:36:14;15.70;99.90
24085;DHT22;12268;52.110;5.548;2023-03-23T14:38:40;16.10;99.90
24085;DHT22;12268;52.110;5.548;2023-03-23T14:41:06;16.20;99.90
24085;DHT22;12268;52.110;5.548;2023-03-23T14:43:36;16.20;99.90
24085;DHT22;12268;52.110;5.548;2023-03-23T14:46:06;16.10;99.90
24085;DHT22;12268;52.110;5.548;2023-03-23T14:48:32;16.20;99.90
24085;DHT22;12268;52.110;5.548;2023-03-23T14:50:59;16.40;99.90
24085;DHT22;12268;52.110;5.548;2023-03-23T14:56:09;16.80;99.90
24085;DHT22;12268;52.110;5.548;2023-03-23T14:58:36;16.70;99.90
24085;DHT22;12268;52.110;5.548;2023-03-23T15:01:16;16.50;99.90
24085;DHT22;12268;52.110;5.548;2023-03-23T15:06:43;16.50;99.90
24085;DHT22;12268;52.110;5.548;2023-03-23T15:09:17;16.30;99.90
24085;DHT22;12268;52.110;5.548;2023-03-23T15:11:57;16.20;99.90
24085;DHT22;12268;52.110;5.548;2023-03-23T15:14:30;16.10;99.90
24085;DHT22;12268;52.110;5.548;2023-03-23T15:16:59;16.20;99.90
24085;DHT22;12268;52.110;5.548;2023-03-23T15:19:28;16.10;99.90
24085;DHT22;12268;52.110;5.548;2023-03-23T15:21:57;16.20;99.90
24085;DHT22;12268;52.110;5.548;2023-03-23T15:27:24;16.10;99.90
24085;DHT22;12268;52.110;5.548;2023-03-23T15:29:53;16.00;99.90
24085;DHT22;12268;52.110;5.548;2023-03-23T15:32:27;16.10;99.90
24085;DHT22;12268;52.110;5.548;2023-03-23T15:34:54;16.30;99.90
24085;DHT22;12268;52.110;5.548;2023-03-23T15:37:29;16.10;99.90
24085;DHT22;12268;52.110;5.548;2023-03-23T15:39:57;16.30;99.90
24085;DHT22;12268;52.110;5.548;2023-03-23T15:42:25;16.50;99.90
24085;DHT22;12268;52.110;5.548;2023-03-23T15:47:21;16.50;99.90
24085;DHT22;12268;52.110;5.548;2023-03-23T15:50:02;16.50;99.90
24085;DHT22;12268;52.110;5.548;2023-03-23T15:52:28;16.50;99.90
24085;DHT22;12268;52.110;5.548;2023-03-23T15:54:54;16.40;99.90
24085;DHT22;12268;52.110;5.548;2023-03-23T15:57:19;16.20;99.90
24085;DHT22;12268;52.110;5.548;2023-03-23T15:59:45;16.30;99.90
24085;DHT22;12268;52.110;5.548;2023-03-23T16:02:18;16.50;99.90
24085;DHT22;12268;52.110;5.548;2023-03-23T16:04:45;16.60;99.90
24085;DHT22;12268;52.110;5.548;2023-03-23T16:07:11;16.70;99.90
24085;DHT22;12268;52.110;5.548;2023-03-23T16:09:38;16.80;99.90
24085;DHT22;12268;52.110;5.548;2023-03-23T16:12:10;16.70;99.90
24085;DHT22;12268;52.110;5.548;2023-03-23T16:14:38;16.90;99.90
24085;DHT22;12268;52.110;5.548;2023-03-23T16:17:03;17.10;99.90
24085;DHT22;12268;52.110;5.548;2023-03-23T16:19:29;17.20;99.90
24085;DHT22;12268;52.110;5.548;2023-03-23T16:21:55;17.20;99.90
24085;DHT22;12268;52.110;5.548;2023-03-23T16:24:20;17.20;99.90
24085;DHT22;12268;52.110;5.548;2023-03-23T16:26:46;17.10;99.90
24085;DHT22;12268;52.110;5.548;2023-03-23T16:29:13;17.10;99.90
24085;DHT22;12268;52.110;5.548;2023-03-23T16:31:39;17.30;99.90
24085;DHT22;12268;52.110;5.548;2023-03-23T16:34:05;17.20;99.90
24085;DHT22;12268;52.110;5.548;2023-03-23T16:36:31;17.20;99.90
24085;DHT22;12268;52.110;5.548;2023-03-23T16:38:57;17.50;99.90
24085;DHT22;12268;52.110;5.548;2023-03-23T16:41:22;17.40;99.90
24085;DHT22;12268;52.110;5.548;2023-03-23T16:43:48;17.50;99.90
24085;DHT22;12268;52.110;5.548;2023-03-23T16:46:13;17.60;99.90
24085;DHT22;12268;52.110;5.548;2023-03-23T16:48:39;17.60;99.90
24085;DHT22;12268;52.110;5.548;2023-03-23T16:51:05;17.50;99.90
24085;DHT22;12268;52.110;5.548;2023-03-23T16:53:31;17.40;99.90
24085;DHT22;12268;52.110;5.548;2023-03-23T16:55:57;17.40;99.90
24085;DHT22;12268;52.110;5.548;2023-03-23T16:58:23;17.50;99.90
24085;DHT22;12268;52.110;5.548;2023-03-23T17:00:50;17.50;99.90
24085;DHT22;12268;52.110;5.548;2023-03-23T17:03:17;17.60;99.90
24085;DHT22;12268;52.110;5.548;2023-03-23T17:05:43;17.50;99.90
24085;DHT22;12268;52.110;5.548;2023-03-23T17:08:10;17.40;99.90
24085;DHT22;12268;52.110;5.548;2023-03-23T17:10:38;17.20;99.90
24085;DHT22;12268;52.110;5.548;2023-03-23T17:13:03;17.10;99.90
24085;DHT22;12268;52.110;5.548;2023-03-23T17:15:29;17.00;99.90
24085;DHT22;12268;52.110;5.548;2023-03-23T17:17:54;16.60;99.90
24085;DHT22;12268;52.110;5.548;2023-03-23T17:20:20;16.50;99.90
24085;DHT22;12268;52.110;5.548;2023-03-23T17:22:46;16.50;99.90
24085;DHT22;12268;52.110;5.548;2023-03-23T17:25:12;16.40;99.90
24085;DHT22;12268;52.110;5.548;2023-03-23T17:27:38;16.30;99.90
24085;DHT22;12268;52.110;5.548;2023-03-23T17:30:05;16.20;99.90
24085;DHT22;12268;52.110;5.548;2023-03-23T17:32:31;16.00;99.90
24085;DHT22;12268;52.110;5.548;2023-03-23T17:34:57;16.00;99.90
24085;DHT22;12268;52.110;5.548;2023-03-23T17:37:23;16.00;99.90
24085;DHT22;12268;52.110;5.548;2023-03-23T17:39:48;15.90;99.90
24085;DHT22;12268;52.110;5.548;2023-03-23T17:42:14;15.90;99.90
24085;DHT22;12268;52.110;5.548;2023-03-23T17:44:40;16.00;99.90